createdAt,value
2023-03-10T00:02:36.583Z,7.53
2023-03-10T00:06:21.238Z,9.18
2023-03-10T00:10:03.443Z,6.20
2023-03-10T00:13:45.350Z,4.57
2023-03-10T00:17:27.955Z,4.88
2023-03-10T00:21:15.359Z,5.00
2023-03-10T00:24:57.168Z,4.10
2023-03-10T00:28:39.386Z,4.88
2023-03-10T00:32:21.178Z,4.65
2023-03-10T00:36:08.987Z,10.65
2023-03-10T00:39:52.422Z,10.25
2023-03-10T00:43:35.175Z,7.40
2023-03-10T00:47:16.963Z,2.70
2023-03-10T00:50:59.540Z,2.95
2023-03-10T00:54:42.128Z,3.13
2023-03-10T00:58:23.899Z,4.10
2023-03-10T01:02:05.875Z,3.90
2023-03-10T01:05:49.350Z,3.78
2023-03-10T01:09:31.094Z,4.40
2023-03-10T01:13:14.268Z,3.25
2023-03-10T01:16:56.083Z,5.22
2023-03-10T01:20:37.999Z,4.80
2023-03-10T01:24:19.971Z,4.97
2023-03-10T01:28:01.705Z,4.78
2023-03-10T01:31:43.566Z,5.25
2023-03-10T01:35:25.689Z,5.10
2023-03-10T01:39:07.468Z,4.57
2023-03-10T01:42:49.221Z,4.78
2023-03-10T01:46:59.298Z,4.25
2023-03-10T01:50:45.321Z,5.32
2023-03-10T01:54:33.745Z,3.55
2023-03-10T01:58:17.779Z,3.97
2023-03-10T02:02:01.629Z,4.22
2023-03-10T02:05:48.464Z,3.92
2023-03-10T02:09:31.063Z,3.63
2023-03-10T02:13:12.767Z,3.67
2023-03-10T02:16:54.590Z,3.20
2023-03-10T02:21:35.113Z,3.90
2023-03-10T02:25:22.074Z,3.80
2023-03-10T02:29:07.392Z,3.70
2023-03-10T02:32:53.226Z,3.63
2023-03-10T02:36:34.989Z,3.58
2023-03-10T02:40:25.507Z,3.05
2023-03-10T02:44:13.696Z,2.50
2023-03-10T02:47:55.439Z,1.55
2023-03-10T02:51:41.501Z,1.70
2023-03-10T02:55:23.269Z,1.80
2023-03-10T02:59:07.269Z,3.50
2023-03-10T03:02:49.043Z,1.40
2023-03-10T03:06:31.064Z,1.75
2023-03-10T03:10:12.848Z,1.85
2023-03-10T03:13:54.798Z,1.90
2023-03-10T03:17:36.563Z,1.90
2023-03-10T03:21:18.428Z,1.80
2023-03-10T03:25:00.184Z,1.85
2023-03-10T03:28:42.596Z,2.67
2023-03-10T03:32:24.454Z,1.73
2023-03-10T03:36:06.653Z,1.67
2023-03-10T03:39:48.489Z,1.55
2023-03-10T03:43:30.304Z,1.73
2023-03-10T03:47:12.066Z,1.67
2023-03-10T03:50:53.859Z,1.60
2023-03-10T03:54:35.728Z,1.75
2023-03-10T03:58:17.549Z,1.90
2023-03-10T04:01:59.344Z,1.80
2023-03-10T04:05:41.462Z,1.67
2023-03-10T04:09:23.221Z,1.80
2023-03-10T04:13:04.990Z,1.70
2023-03-10T04:16:46.786Z,2.05
2023-03-10T04:20:28.572Z,1.90
2023-03-10T04:24:10.341Z,1.83
2023-03-10T04:27:52.128Z,1.83
2023-03-10T04:31:33.902Z,1.88
2023-03-10T04:35:15.701Z,1.52
2023-03-10T04:38:57.568Z,1.80
2023-03-10T04:42:39.318Z,1.70
2023-03-10T04:46:21.183Z,1.80
2023-03-10T04:50:03.344Z,1.70
2023-03-10T04:53:45.137Z,1.80
2023-03-10T04:57:27.448Z,1.80
2023-03-10T05:01:11.070Z,1.80
2023-03-10T05:04:52.947Z,1.80
2023-03-10T05:08:34.704Z,1.98
2023-03-10T05:12:16.457Z,1.90
2023-03-10T05:15:58.531Z,1.90
2023-03-10T05:19:40.327Z,1.92
2023-03-10T05:23:22.438Z,1.90
2023-03-10T05:27:04.356Z,2.00
2023-03-10T05:30:46.065Z,1.73
2023-03-10T05:34:28.767Z,1.70
2023-03-10T05:38:10.484Z,1.38
2023-03-10T05:41:52.210Z,1.67
2023-03-10T05:45:34.091Z,1.60
2023-03-10T05:49:15.854Z,1.35
2023-03-10T05:52:57.600Z,1.75
2023-03-10T05:56:39.352Z,1.40
2023-03-10T06:00:21.461Z,1.60
2023-03-10T06:04:03.861Z,1.20
2023-03-10T06:07:46.138Z,1.10
2023-03-10T06:11:28.017Z,1.10
2023-03-10T06:15:10.188Z,1.02
2023-03-10T06:18:56.034Z,1.10
2023-03-10T06:22:37.868Z,1.00
2023-03-10T06:26:19.612Z,2.92
2023-03-10T06:30:01.431Z,0.70
2023-03-10T06:33:43.727Z,1.20
2023-03-10T06:37:25.637Z,1.10
2023-03-10T06:41:08.030Z,1.00
2023-03-10T06:44:49.776Z,0.88
2023-03-10T06:48:31.642Z,1.65
2023-03-10T06:52:13.444Z,1.00
2023-03-10T06:56:07.178Z,0.80
2023-03-10T06:59:49.041Z,0.88
2023-03-10T07:03:30.880Z,0.52
2023-03-10T07:07:13.748Z,0.90
2023-03-10T07:10:56.487Z,0.85
2023-03-10T07:14:38.183Z,0.90
2023-03-10T07:18:20.144Z,0.80
2023-03-10T07:22:01.961Z,0.60
2023-03-10T07:25:43.673Z,1.08
2023-03-10T07:29:25.529Z,0.63
2023-03-10T07:33:07.438Z,1.15
2023-03-10T07:36:49.234Z,1.10
2023-03-10T07:40:31.291Z,0.88
2023-03-10T07:44:13.006Z,0.80
2023-03-10T07:47:55.157Z,0.88
2023-03-10T07:51:37.991Z,1.00
2023-03-10T07:55:19.730Z,0.50
2023-03-10T07:59:01.511Z,0.77
2023-03-10T08:02:43.277Z,2.30
2023-03-10T08:06:27.877Z,1.10
2023-03-10T08:10:10.539Z,1.77
2023-03-10T08:13:52.327Z,2.63
2023-03-10T08:17:34.206Z,2.58
2023-03-10T08:21:16.021Z,1.00
2023-03-10T08:24:59.455Z,0.80
2023-03-10T08:28:42.207Z,0.88
2023-03-10T08:32:24.065Z,0.80
2023-03-10T08:36:15.263Z,1.05
2023-03-10T08:39:59.165Z,1.33
2023-03-10T08:43:41.104Z,1.67
2023-03-10T08:47:23.476Z,1.45
2023-03-10T08:51:06.958Z,1.70
2023-03-10T08:54:48.898Z,1.52
2023-03-10T08:58:30.803Z,1.50
2023-03-10T09:02:15.175Z,1.10
2023-03-10T09:05:57.071Z,0.80
2023-03-10T09:09:38.823Z,1.90
2023-03-10T09:13:20.605Z,1.88
2023-03-10T09:17:02.501Z,2.35
2023-03-10T09:20:45.328Z,2.25
2023-03-10T09:24:27.358Z,1.17
2023-03-10T09:28:12.275Z,2.58
2023-03-10T09:31:54.081Z,2.25
2023-03-10T09:35:39.377Z,2.42
2023-03-10T09:39:23.768Z,1.58
2023-03-10T09:43:07.845Z,1.85
2023-03-10T09:47:10.966Z,1.50
2023-03-10T09:50:56.505Z,3.65
2023-03-10T09:54:57.280Z,3.58
2023-03-10T09:58:43.979Z,1.10
2023-03-10T10:02:32.124Z,1.63
2023-03-10T10:06:19.398Z,1.23
2023-03-10T10:10:18.594Z,2.35
2023-03-10T10:14:38.378Z,0.98
2023-03-10T10:18:31.564Z,1.33
2023-03-10T10:22:27.606Z,3.00
2023-03-10T10:26:18.861Z,2.05
2023-03-10T10:30:32.508Z,0.70
2023-03-10T10:34:22.468Z,0.77
2023-03-10T10:38:09.953Z,1.65
2023-03-10T10:41:51.784Z,1.10
2023-03-10T10:45:39.521Z,1.00
2023-03-10T10:49:31.586Z,0.95
2023-03-10T10:53:13.607Z,1.00
2023-03-10T10:57:00.983Z,1.88
2023-03-10T11:00:42.763Z,1.27
2023-03-10T11:04:26.771Z,7.07
2023-03-10T11:08:28.249Z,5.15
2023-03-10T11:12:32.094Z,1.88
2023-03-10T11:16:34.505Z,2.13
2023-03-10T11:20:32.837Z,7.88
2023-03-10T11:24:27.984Z,1.85
2023-03-10T11:28:40.708Z,5.72
2023-03-10T11:32:41.296Z,2.45
2023-03-10T11:36:55.347Z,1.35
2023-03-10T11:40:44.185Z,3.28
2023-03-10T11:45:11.908Z,3.00
2023-03-10T11:49:10.762Z,2.25
2023-03-10T11:53:00.485Z,1.92
2023-03-10T11:56:42.833Z,7.18
2023-03-10T12:00:34.274Z,4.18
2023-03-10T12:04:45.113Z,3.15
2023-03-10T12:08:33.049Z,2.25
2023-03-10T12:12:19.560Z,1.85
2023-03-10T12:16:03.954Z,8.00
2023-03-10T12:20:14.766Z,3.55
2023-03-10T12:23:58.893Z,2.28
2023-03-10T12:28:18.340Z,1.75
2023-03-10T12:32:00.851Z,3.88
2023-03-10T12:35:49.471Z,3.10
2023-03-10T12:39:42.452Z,2.22
2023-03-10T12:43:56.030Z,7.78
2023-03-10T12:47:52.619Z,2.65
2023-03-10T12:51:46.291Z,2.58
2023-03-10T12:55:28.996Z,7.43
2023-03-10T12:59:30.344Z,6.85
2023-03-10T13:03:28.101Z,10.25
2023-03-10T13:07:15.483Z,14.38
2023-03-10T13:10:59.188Z,19.57
2023-03-10T13:14:43.209Z,4.95
2023-03-10T13:18:25.171Z,8.35
2023-03-10T13:22:07.065Z,10.38
2023-03-10T13:26:14.650Z,2.72
2023-03-10T13:30:02.568Z,5.38
2023-03-10T13:33:53.243Z,3.72
2023-03-10T13:37:35.535Z,3.38
2023-03-10T13:41:17.273Z,3.35
2023-03-10T13:44:59.077Z,1.40
2023-03-10T13:48:41.449Z,1.45
2023-03-10T13:52:29.116Z,4.80
2023-03-10T13:56:21.666Z,6.35
2023-03-10T14:00:08.572Z,1.20
2023-03-10T14:03:56.650Z,2.17
2023-03-10T14:11:39.226Z,3.00
2023-03-10T14:15:23.212Z,3.70
2023-03-10T14:19:04.982Z,10.02
2023-03-10T14:22:47.821Z,4.07
2023-03-10T14:26:29.775Z,3.90
2023-03-10T14:30:41.680Z,5.75
2023-03-10T14:34:23.556Z,17.83
2023-03-10T14:38:05.647Z,4.70
2023-03-10T14:41:47.792Z,1.60
2023-03-10T14:45:35.092Z,2.05
2023-03-10T14:49:17.055Z,1.90
2023-03-10T14:52:58.878Z,13.43
2023-03-10T14:56:41.152Z,8.90
2023-03-10T15:00:23.336Z,5.70
2023-03-10T15:04:05.497Z,16.02
2023-03-10T15:07:48.898Z,5.13
2023-03-10T15:11:37.329Z,2.58
2023-03-10T15:15:25.114Z,3.40
2023-03-10T15:19:07.158Z,10.77
2023-03-10T15:22:50.115Z,17.30
2023-03-10T15:26:32.189Z,13.13
2023-03-10T15:30:25.887Z,10.32
2023-03-10T15:34:07.969Z,13.50
2023-03-10T15:37:51.093Z,7.80
2023-03-10T15:41:37.746Z,3.08
2023-03-10T15:45:19.723Z,3.78
2023-03-10T15:49:04.389Z,9.45
2023-03-10T15:52:54.701Z,12.00
2023-03-10T15:56:36.417Z,10.02
2023-03-10T16:00:20.557Z,14.52
2023-03-10T16:04:05.892Z,7.43
2023-03-10T16:07:47.977Z,11.73
2023-03-10T16:11:29.748Z,8.75
2023-03-10T16:15:12.681Z,8.38
2023-03-10T16:18:54.862Z,4.53
2023-03-10T16:22:40.667Z,7.90
2023-03-10T16:26:24.009Z,8.38
2023-03-10T16:30:06.577Z,8.88
2023-03-10T16:33:50.665Z,6.78
2023-03-10T16:37:32.459Z,7.53
2023-03-10T16:41:14.561Z,7.75
2023-03-10T16:44:56.849Z,8.73
2023-03-10T16:48:44.739Z,4.05
2023-03-10T16:52:26.541Z,11.13
2023-03-10T16:56:08.528Z,4.32
2023-03-10T16:59:50.226Z,15.63
2023-03-10T17:03:33.816Z,9.43
2023-03-10T17:07:15.729Z,13.27
2023-03-10T17:10:57.584Z,10.18
2023-03-10T17:14:39.315Z,16.20
2023-03-10T17:18:21.081Z,7.38
2023-03-10T17:22:02.972Z,9.40
2023-03-10T17:25:45.649Z,15.32
2023-03-10T17:29:27.409Z,11.05
2023-03-10T17:33:09.120Z,15.70
2023-03-10T17:36:51.439Z,3.75
2023-03-10T17:40:33.844Z,5.65
2023-03-10T17:44:16.363Z,14.85
2023-03-10T17:47:58.124Z,6.57
2023-03-10T17:51:43.523Z,9.25
2023-03-10T17:55:25.489Z,9.32
2023-03-10T17:59:07.288Z,10.30
2023-03-10T18:02:49.140Z,13.68
2023-03-10T18:06:33.882Z,20.23
2023-03-10T18:10:16.456Z,22.42
2023-03-10T18:13:58.633Z,18.55
2023-03-10T18:17:40.485Z,13.27
2023-03-10T18:21:23.186Z,18.42
2023-03-10T18:25:05.330Z,26.48
2023-03-10T18:28:47.383Z,32.58
2023-03-10T18:32:34.158Z,43.60
2023-03-10T18:36:17.555Z,32.47
2023-03-10T18:40:04.363Z,35.67
2023-03-10T18:43:46.401Z,44.58
2023-03-10T18:47:28.414Z,39.20
2023-03-10T18:51:11.141Z,33.33
2023-03-10T18:54:53.242Z,52.47
2023-03-10T18:58:37.590Z,43.45
2023-03-10T19:02:19.356Z,53.72
2023-03-10T19:06:01.533Z,23.83
2023-03-10T19:09:43.727Z,28.65
2023-03-10T19:13:27.976Z,24.08
2023-03-10T19:17:09.700Z,37.60
2023-03-10T19:20:57.810Z,19.10
2023-03-10T19:24:39.760Z,24.80
2023-03-10T19:28:21.597Z,24.38
2023-03-10T19:32:03.496Z,31.33
2023-03-10T19:35:45.725Z,31.60
2023-03-10T19:39:27.496Z,40.83
2023-03-10T19:43:09.165Z,43.30
2023-03-10T19:46:51.053Z,41.80
2023-03-10T19:50:32.795Z,30.10
2023-03-10T19:54:14.762Z,23.70
2023-03-10T19:57:56.556Z,23.15
2023-03-10T20:01:40.344Z,24.45
2023-03-10T20:05:25.540Z,22.00
2023-03-10T20:09:10.677Z,25.17
2023-03-10T20:12:52.505Z,34.25
2023-03-10T20:16:34.762Z,46.42
2023-03-10T20:20:19.948Z,36.03
2023-03-10T20:24:02.006Z,37.47
2023-03-10T20:27:45.543Z,28.15
2023-03-10T20:31:33.721Z,32.53
2023-03-10T20:35:16.542Z,44.17
2023-03-10T20:38:59.457Z,41.42
2023-03-10T20:42:41.945Z,49.92
2023-03-10T20:46:24.851Z,48.92
2023-03-10T20:50:08.925Z,43.60
2023-03-10T20:53:51.970Z,44.28
2023-03-10T20:57:34.889Z,42.60
2023-03-10T21:01:20.157Z,49.72
2023-03-10T21:05:04.999Z,44.63
2023-03-10T21:08:47.755Z,41.92
2023-03-10T21:12:29.617Z,38.28
2023-03-10T21:16:11.567Z,38.92
2023-03-10T21:19:54.239Z,40.28
2023-03-10T21:23:39.434Z,32.38
2023-03-10T21:27:21.319Z,31.13
2023-03-10T21:31:03.320Z,24.48
2023-03-10T21:34:45.524Z,19.83
2023-03-10T21:38:27.397Z,24.85
2023-03-10T21:42:13.086Z,27.15
2023-03-10T21:45:54.956Z,24.55
2023-03-10T21:49:37.163Z,31.60
2023-03-10T21:53:19.102Z,21.73
2023-03-10T21:57:01.115Z,14.93
2023-03-10T22:00:42.864Z,14.88
2023-03-10T22:04:24.589Z,15.45
2023-03-10T22:08:07.196Z,18.67
2023-03-10T22:11:48.939Z,24.27
2023-03-10T22:15:30.860Z,24.38
2023-03-10T22:19:12.580Z,25.88
2023-03-10T22:22:54.888Z,42.58
2023-03-10T22:26:37.010Z,27.15
2023-03-10T22:30:20.233Z,19.08
2023-03-10T22:34:01.967Z,25.77
2023-03-10T22:37:44.178Z,21.92
2023-03-10T22:41:27.835Z,26.30
2023-03-10T22:45:24.152Z,27.20
2023-03-10T22:49:05.924Z,28.45
2023-03-10T22:52:47.901Z,29.10
2023-03-10T22:56:29.612Z,23.90
2023-03-10T23:00:21.299Z,20.95
2023-03-10T23:04:03.334Z,18.45
2023-03-10T23:07:45.645Z,17.50
2023-03-10T23:11:27.458Z,20.23
2023-03-10T23:15:18.898Z,45.92
2023-03-10T23:19:08.653Z,116.45
2023-03-10T23:22:50.458Z,69.57
2023-03-10T23:26:35.011Z,29.40
2023-03-10T23:30:17.342Z,29.67
2023-03-10T23:33:59.388Z,34.70
2023-03-10T23:37:41.407Z,30.33
2023-03-10T23:41:23.327Z,22.52
2023-03-10T23:45:07.490Z,22.02
2023-03-10T23:48:49.467Z,24.67
2023-03-10T23:52:31.391Z,16.63
2023-03-10T23:56:13.382Z,19.58
2023-03-10T23:59:55.170Z,19.90
